createdAt,value
2023-05-06T00:02:02.613Z,4.10
2023-05-06T00:04:34.213Z,4.53
2023-05-06T00:07:19.369Z,4.13
2023-05-06T00:09:47.532Z,4.20
2023-05-06T00:12:16.154Z,3.70
2023-05-06T00:14:46.208Z,3.78
2023-05-06T00:17:14.438Z,4.00
2023-05-06T00:19:44.481Z,4.38
2023-05-06T00:22:12.883Z,4.32
2023-05-06T00:24:42.424Z,4.07
2023-05-06T00:27:10.745Z,4.40
2023-05-06T00:29:38.924Z,4.53
2023-05-06T00:32:07.477Z,5.10
2023-05-06T00:34:35.853Z,4.72
2023-05-06T00:37:04.475Z,5.15
2023-05-06T00:39:33.535Z,5.03
2023-05-06T00:42:03.444Z,5.07
2023-05-06T00:44:32.846Z,4.80
2023-05-06T00:47:02.832Z,5.10
2023-05-06T00:49:31.729Z,4.63
2023-05-06T00:52:01.192Z,4.40
2023-05-06T00:54:29.973Z,3.93
2023-05-06T00:56:58.474Z,4.23
2023-05-06T00:59:30.299Z,4.35
2023-05-06T01:01:59.312Z,4.40
2023-05-06T01:04:29.693Z,4.53
2023-05-06T01:07:07.038Z,4.50
2023-05-06T01:09:44.138Z,5.10
2023-05-06T01:12:22.482Z,4.83
2023-05-06T01:15:06.480Z,4.43
2023-05-06T01:17:38.278Z,4.90
2023-05-06T01:20:11.751Z,4.90
2023-05-06T01:22:40.980Z,5.30
2023-05-06T01:25:20.527Z,5.93
2023-05-06T01:27:49.714Z,5.32
2023-05-06T01:30:19.560Z,5.77
2023-05-06T01:32:59.566Z,6.50
2023-05-06T01:35:35.984Z,6.83
2023-05-06T01:38:13.960Z,7.40
2023-05-06T01:40:45.643Z,7.07
2023-05-06T01:43:15.525Z,8.05
2023-05-06T01:45:49.438Z,7.77
2023-05-06T01:48:18.844Z,8.27
2023-05-06T01:50:47.206Z,8.50
2023-05-06T01:53:15.463Z,9.00
2023-05-06T01:55:45.072Z,8.57
2023-05-06T01:58:13.283Z,8.27
2023-05-06T02:00:42.937Z,8.20
2023-05-06T02:03:34.913Z,9.10
2023-05-06T02:06:03.416Z,9.07
2023-05-06T02:08:35.834Z,8.63
2023-05-06T02:11:12.994Z,8.63
2023-05-06T02:13:42.620Z,8.87
2023-05-06T02:16:15.895Z,8.60
2023-05-06T02:18:44.355Z,8.70
2023-05-06T02:21:12.776Z,8.30
2023-05-06T02:23:41.032Z,9.07
2023-05-06T02:26:10.607Z,8.03
2023-05-06T02:28:38.940Z,8.30
2023-05-06T02:31:07.251Z,8.38
2023-05-06T02:33:35.919Z,8.27
2023-05-06T02:36:06.177Z,9.23
2023-05-06T02:38:34.772Z,8.90
2023-05-06T02:41:03.701Z,9.18
2023-05-06T02:43:33.638Z,9.25
2023-05-06T02:46:01.967Z,8.45
2023-05-06T02:48:30.241Z,9.38
2023-05-06T02:50:58.595Z,8.98
2023-05-06T02:53:26.820Z,10.00
2023-05-06T02:55:55.064Z,9.23
2023-05-06T02:58:23.339Z,9.87
2023-05-06T03:00:52.982Z,10.77
2023-05-06T03:03:22.054Z,10.17
2023-05-06T03:05:50.295Z,10.17
2023-05-06T03:08:18.841Z,9.47
2023-05-06T03:10:47.524Z,9.90
2023-05-06T03:13:18.921Z,11.37
2023-05-06T03:15:54.921Z,9.73
2023-05-06T03:18:23.602Z,10.03
2023-05-06T03:20:52.213Z,10.43
2023-05-06T03:23:20.851Z,10.37
2023-05-06T03:25:49.458Z,11.00
2023-05-06T03:28:18.645Z,11.20
2023-05-06T03:30:48.324Z,11.63
2023-05-06T03:33:18.631Z,11.07
2023-05-06T03:35:46.853Z,11.70
2023-05-06T03:38:15.199Z,10.83
2023-05-06T03:40:49.929Z,11.43
2023-05-06T03:43:18.422Z,11.43
2023-05-06T03:45:49.759Z,12.77
2023-05-06T03:48:19.435Z,11.67
2023-05-06T03:50:47.876Z,11.20
2023-05-06T03:53:17.293Z,11.40
2023-05-06T03:55:47.909Z,10.73
2023-05-06T03:58:16.276Z,10.63
2023-05-06T04:00:46.669Z,10.13
2023-05-06T04:03:15.068Z,10.10
2023-05-06T04:08:44.137Z,10.70
2023-05-06T04:11:37.218Z,10.20
2023-05-06T04:14:07.664Z,11.00
2023-05-06T04:16:37.050Z,11.37
2023-05-06T04:19:07.005Z,10.80
2023-05-06T04:21:39.291Z,10.70
2023-05-06T04:24:11.591Z,9.93
2023-05-06T04:26:41.058Z,10.10
2023-05-06T04:29:09.768Z,10.87
2023-05-06T04:31:45.187Z,10.63
2023-05-06T04:34:16.626Z,10.77
2023-05-06T04:36:47.653Z,10.20
2023-05-06T04:39:27.238Z,10.10
2023-05-06T04:41:55.773Z,9.67
2023-05-06T04:44:30.934Z,9.50
2023-05-06T04:46:59.320Z,11.10
2023-05-06T04:49:27.520Z,10.80
2023-05-06T04:51:58.235Z,10.63
2023-05-06T04:54:27.277Z,11.30
2023-05-06T04:56:55.715Z,10.00
2023-05-06T04:59:24.442Z,9.50
2023-05-06T05:01:53.782Z,10.10
2023-05-06T05:04:22.198Z,9.27
2023-05-06T05:06:50.529Z,9.47
2023-05-06T05:09:20.189Z,9.50
2023-05-06T05:11:49.806Z,9.53
2023-05-06T05:14:18.057Z,9.40
2023-05-06T05:16:46.536Z,9.37
2023-05-06T05:19:16.076Z,9.87
2023-05-06T05:21:44.334Z,9.27
2023-05-06T05:24:14.394Z,8.57
2023-05-06T05:26:43.994Z,8.67
2023-05-06T05:29:12.331Z,8.80
2023-05-06T05:31:40.964Z,9.53
2023-05-06T05:34:09.291Z,8.80
2023-05-06T05:36:38.241Z,8.83
2023-05-06T05:39:09.253Z,7.40
2023-05-06T05:41:44.497Z,6.40
2023-05-06T05:44:13.412Z,6.70
2023-05-06T05:46:42.557Z,7.00
2023-05-06T05:49:14.036Z,6.40
2023-05-06T05:51:42.940Z,6.17
2023-05-06T05:54:14.278Z,6.80
2023-05-06T05:56:44.691Z,6.43
2023-05-06T05:59:12.991Z,7.73
2023-05-06T06:01:41.730Z,6.43
2023-05-06T06:04:10.930Z,6.80
2023-05-06T06:06:39.315Z,7.27
2023-05-06T06:09:07.697Z,8.05
2023-05-06T06:11:47.400Z,7.43
2023-05-06T06:14:18.091Z,7.63
2023-05-06T06:16:49.742Z,6.80
2023-05-06T06:19:19.499Z,6.53
2023-05-06T06:21:47.718Z,7.20
2023-05-06T06:24:16.606Z,6.40
2023-05-06T06:26:44.889Z,6.70
2023-05-06T06:29:14.520Z,7.33
2023-05-06T06:31:42.774Z,7.05
2023-05-06T06:34:12.743Z,6.50
2023-05-06T06:36:45.171Z,6.50
2023-05-06T06:39:13.582Z,6.47
2023-05-06T06:41:41.847Z,7.00
2023-05-06T06:44:10.078Z,6.50
2023-05-06T06:46:39.928Z,6.47
2023-05-06T06:49:08.146Z,6.63
2023-05-06T06:51:36.404Z,6.65
2023-05-06T06:54:04.734Z,6.17
2023-05-06T06:56:33.020Z,6.37
2023-05-06T06:59:01.252Z,5.78
2023-05-06T07:01:29.556Z,6.53
2023-05-06T07:03:59.196Z,6.22
2023-05-06T07:06:27.413Z,6.28
2023-05-06T07:08:55.984Z,6.05
2023-05-06T07:11:24.348Z,5.88
2023-05-06T07:13:52.588Z,6.00
2023-05-06T07:16:20.874Z,5.13
2023-05-06T07:18:50.112Z,5.47
2023-05-06T07:21:19.786Z,5.78
2023-05-06T07:23:48.095Z,4.93
2023-05-06T07:26:16.342Z,5.25
2023-05-06T07:28:44.604Z,4.28
2023-05-06T07:31:12.824Z,5.25
2023-05-06T07:33:41.032Z,5.30
2023-05-06T07:36:09.724Z,4.78
2023-05-06T07:38:39.507Z,4.60
2023-05-06T07:41:07.764Z,4.65
2023-05-06T07:43:36.094Z,4.35
2023-05-06T07:46:05.633Z,4.72
2023-05-06T07:48:34.165Z,4.72
2023-05-06T07:51:02.515Z,4.28
2023-05-06T07:53:31.001Z,4.15
2023-05-06T07:56:02.272Z,4.88
2023-05-06T07:58:32.713Z,4.43
2023-05-06T08:01:01.052Z,4.60
2023-05-06T08:03:29.309Z,4.10
2023-05-06T08:05:57.894Z,4.00
2023-05-06T08:08:27.915Z,3.33
2023-05-06T08:10:57.251Z,3.30
2023-05-06T08:13:28.103Z,3.22
2023-05-06T08:15:57.374Z,3.55
2023-05-06T08:18:25.782Z,3.75
2023-05-06T08:20:54.042Z,3.42
2023-05-06T08:23:22.400Z,3.22
2023-05-06T08:25:51.292Z,3.00
2023-05-06T08:28:19.513Z,3.35
2023-05-06T08:30:51.312Z,2.50
2023-05-06T08:33:20.378Z,2.78
2023-05-06T08:35:49.519Z,3.25
2023-05-06T08:38:17.812Z,2.47
2023-05-06T08:40:46.536Z,3.75
2023-05-06T08:43:16.314Z,3.90
2023-05-06T08:45:44.696Z,3.10
2023-05-06T08:48:14.368Z,2.90
2023-05-06T08:50:44.276Z,3.13
2023-05-06T08:53:13.831Z,3.05
2023-05-06T08:55:42.857Z,2.60
2023-05-06T08:58:15.738Z,2.80
2023-05-06T09:00:45.126Z,2.95
2023-05-06T09:03:14.882Z,3.65
2023-05-06T09:05:43.386Z,3.83
2023-05-06T09:08:11.665Z,2.92
2023-05-06T09:10:45.039Z,3.50
2023-05-06T09:13:15.416Z,2.97
2023-05-06T09:15:45.023Z,2.72
2023-05-06T09:18:15.029Z,3.33
2023-05-06T09:20:45.394Z,2.60
2023-05-06T09:23:16.909Z,2.53
2023-05-06T09:25:47.770Z,3.67
2023-05-06T09:28:16.036Z,2.80
2023-05-06T09:30:47.684Z,2.40
2023-05-06T09:33:17.697Z,2.88
2023-05-06T09:35:46.154Z,3.08
2023-05-06T09:38:14.415Z,2.35
2023-05-06T09:40:42.723Z,1.70
2023-05-06T09:43:12.402Z,1.77
2023-05-06T09:45:40.807Z,1.80
2023-05-06T09:48:10.109Z,1.75
2023-05-06T09:50:40.557Z,1.73
2023-05-06T09:53:09.815Z,1.58
2023-05-06T09:55:39.187Z,2.28
2023-05-06T09:58:09.353Z,2.30
2023-05-06T10:00:38.254Z,1.70
2023-05-06T10:03:07.124Z,0.90
2023-05-06T10:05:38.986Z,1.20
2023-05-06T10:08:08.655Z,1.17
2023-05-06T10:11:02.998Z,1.10
2023-05-06T10:13:55.632Z,1.83
2023-05-06T10:16:24.444Z,1.30
2023-05-06T10:18:55.955Z,1.27
2023-05-06T10:21:29.062Z,1.05
2023-05-06T10:24:08.970Z,1.00
2023-05-06T10:26:38.976Z,1.58
2023-05-06T10:29:11.552Z,1.60
2023-05-06T10:31:50.326Z,1.58
2023-05-06T10:34:21.689Z,1.40
2023-05-06T10:36:56.562Z,1.23
2023-05-06T10:39:25.528Z,1.50
2023-05-06T10:41:53.886Z,1.40
2023-05-06T10:45:01.127Z,1.27
2023-05-06T10:47:29.424Z,1.60
2023-05-06T10:50:19.955Z,1.77
2023-05-06T10:52:52.906Z,1.60
2023-05-06T10:55:30.932Z,1.80
2023-05-06T10:58:03.592Z,1.25
2023-05-06T11:00:36.123Z,1.23
2023-05-06T11:03:08.316Z,1.70
2023-05-06T11:05:49.274Z,1.67
2023-05-06T11:08:25.218Z,1.42
2023-05-06T11:10:53.567Z,1.67
2023-05-06T11:13:24.873Z,1.48
2023-05-06T11:15:53.413Z,1.50
2023-05-06T11:18:47.247Z,1.67
2023-05-06T11:21:38.762Z,1.60
2023-05-06T11:24:13.397Z,1.40
2023-05-06T11:26:43.112Z,1.50
2023-05-06T11:29:11.353Z,1.58
2023-05-06T11:31:42.137Z,1.58
2023-05-06T11:34:14.624Z,1.60
2023-05-06T11:36:58.225Z,1.50
2023-05-06T11:39:30.716Z,1.50
2023-05-06T11:42:00.638Z,1.10
2023-05-06T11:44:32.060Z,1.15
2023-05-06T11:47:03.049Z,1.77
2023-05-06T11:49:32.028Z,1.75
2023-05-06T11:52:00.279Z,1.95
2023-05-06T11:54:29.946Z,1.52
2023-05-06T11:56:58.209Z,1.50
2023-05-06T11:59:31.327Z,1.50
2023-05-06T12:02:02.819Z,1.10
2023-05-06T12:04:39.619Z,0.80
2023-05-06T12:07:09.362Z,0.95
2023-05-06T12:09:41.818Z,0.80
2023-05-06T12:12:12.541Z,0.75
2023-05-06T12:14:41.397Z,0.85
2023-05-06T12:17:10.185Z,1.00
2023-05-06T12:19:39.786Z,1.05
2023-05-06T12:22:22.014Z,0.90
2023-05-06T12:24:52.030Z,1.20
2023-05-06T12:27:33.547Z,1.10
2023-05-06T12:30:04.149Z,1.08
2023-05-06T12:32:32.617Z,1.10
2023-05-06T12:35:05.774Z,1.00
2023-05-06T12:37:34.177Z,1.20
2023-05-06T12:40:03.942Z,1.20
2023-05-06T12:42:32.233Z,1.20
2023-05-06T12:45:14.744Z,1.30
2023-05-06T12:47:54.439Z,1.30
2023-05-06T12:50:33.810Z,1.13
2023-05-06T12:53:02.453Z,1.20
2023-05-06T12:55:33.183Z,1.40
2023-05-06T12:58:01.522Z,1.40
2023-05-06T13:00:29.837Z,1.30
2023-05-06T13:02:58.072Z,1.10
2023-05-06T13:05:26.345Z,1.33
2023-05-06T13:07:54.556Z,1.10
2023-05-06T13:10:22.752Z,1.00
2023-05-06T13:12:52.428Z,1.05
2023-05-06T13:15:20.727Z,1.10
2023-05-06T13:17:50.061Z,1.30
2023-05-06T13:20:19.475Z,1.13
2023-05-06T13:22:54.308Z,1.17
2023-05-06T13:25:23.808Z,1.15
2023-05-06T13:27:54.417Z,1.27
2023-05-06T13:30:23.216Z,1.08
2023-05-06T13:32:51.985Z,1.30
2023-05-06T13:35:20.457Z,1.20
2023-05-06T13:37:48.705Z,1.00
2023-05-06T13:40:17.046Z,1.10
2023-05-06T13:42:45.344Z,1.05
2023-05-06T13:45:15.713Z,1.00
2023-05-06T13:47:44.225Z,0.98
2023-05-06T13:50:12.857Z,1.00
2023-05-06T13:52:41.302Z,1.15
2023-05-06T13:55:10.579Z,1.10
2023-05-06T13:57:39.024Z,1.17
2023-05-06T14:00:10.870Z,1.20
2023-05-06T14:02:47.045Z,1.05
2023-05-06T14:05:39.911Z,1.20
2023-05-06T14:08:08.963Z,1.25
2023-05-06T14:10:38.755Z,1.13
2023-05-06T14:13:12.286Z,1.17
2023-05-06T14:15:41.049Z,1.00
2023-05-06T14:18:10.860Z,1.10
2023-05-06T14:20:39.427Z,1.05
2023-05-06T14:23:07.627Z,1.00
2023-05-06T14:25:35.828Z,0.95
2023-05-06T14:28:04.186Z,1.00
2023-05-06T14:30:34.151Z,1.02
2023-05-06T14:33:02.423Z,1.17
2023-05-06T14:35:32.147Z,1.02
2023-05-06T14:38:00.773Z,0.88
2023-05-06T14:40:29.110Z,1.00
2023-05-06T14:42:57.345Z,0.68
2023-05-06T14:45:25.581Z,0.98
2023-05-06T14:47:53.858Z,1.05
2023-05-06T14:50:22.366Z,0.98
2023-05-06T14:52:51.830Z,1.10
2023-05-06T14:55:20.254Z,1.30
2023-05-06T14:57:48.497Z,0.73
2023-05-06T15:00:18.417Z,0.77
2023-05-06T15:02:46.640Z,0.93
2023-05-06T15:05:15.157Z,0.70
2023-05-06T15:07:43.720Z,0.90
2023-05-06T15:10:13.449Z,1.08
2023-05-06T15:12:41.728Z,1.30
2023-05-06T15:15:11.053Z,1.10
2023-05-06T15:17:41.282Z,1.00
2023-05-06T15:20:10.785Z,1.00
2023-05-06T15:22:39.676Z,1.33
2023-05-06T15:25:12.343Z,0.90
2023-05-06T15:27:44.071Z,1.00
2023-05-06T15:30:13.447Z,1.00
2023-05-06T15:32:41.629Z,1.05
2023-05-06T15:35:10.855Z,1.10
2023-05-06T15:37:39.229Z,1.15
2023-05-06T15:40:12.262Z,1.08
2023-05-06T15:42:41.143Z,1.20
2023-05-06T15:45:12.960Z,1.20
2023-05-06T15:47:41.238Z,1.25
2023-05-06T15:50:20.102Z,1.17
2023-05-06T15:52:49.476Z,1.10
2023-05-06T15:55:19.019Z,1.00
2023-05-06T15:57:47.661Z,1.23
2023-05-06T16:00:17.893Z,1.10
2023-05-06T16:02:46.244Z,1.00
2023-05-06T16:05:16.614Z,0.85
2023-05-06T16:07:45.066Z,1.17
2023-05-06T16:10:13.426Z,1.50
2023-05-06T16:12:55.803Z,0.90
2023-05-06T16:15:50.645Z,1.10
2023-05-06T16:18:19.545Z,1.00
2023-05-06T16:20:51.557Z,1.33
2023-05-06T16:23:21.324Z,1.10
2023-05-06T16:25:49.550Z,1.50
2023-05-06T16:28:17.791Z,1.08
2023-05-06T16:30:46.380Z,0.90
2023-05-06T16:33:15.938Z,1.10
2023-05-06T16:35:44.108Z,1.10
2023-05-06T16:38:12.320Z,1.15
2023-05-06T16:40:50.920Z,1.30
2023-05-06T16:43:19.590Z,1.30
2023-05-06T16:45:47.794Z,1.00
2023-05-06T16:48:17.690Z,1.25
2023-05-06T16:50:46.229Z,1.15
2023-05-06T16:53:14.705Z,1.17
2023-05-06T16:55:48.544Z,1.23
2023-05-06T16:58:17.048Z,1.00
2023-05-06T17:00:45.331Z,1.10
2023-05-06T17:03:13.698Z,1.20
2023-05-06T17:05:43.421Z,1.13
2023-05-06T17:08:12.047Z,2.03
2023-05-06T17:10:40.354Z,1.30
2023-05-06T17:13:08.985Z,1.52
2023-05-06T17:15:37.252Z,1.92
2023-05-06T17:18:05.778Z,1.10
2023-05-06T17:20:47.546Z,1.10
2023-05-06T17:23:23.749Z,1.00
2023-05-06T17:25:52.188Z,1.10
2023-05-06T17:28:20.988Z,1.50
2023-05-06T17:30:49.201Z,1.58
2023-05-06T17:33:17.403Z,1.20
2023-05-06T17:35:45.937Z,2.13
2023-05-06T17:38:16.790Z,1.42
2023-05-06T17:40:46.288Z,3.10
2023-05-06T17:43:19.510Z,1.65
2023-05-06T17:45:47.742Z,1.73
2023-05-06T17:48:15.977Z,1.10
2023-05-06T17:50:44.141Z,1.20
2023-05-06T17:53:12.400Z,1.30
2023-05-06T17:55:41.467Z,1.45
2023-05-06T17:58:11.059Z,1.20
2023-05-06T18:00:39.448Z,1.33
2023-05-06T18:03:07.791Z,1.20
2023-05-06T18:05:37.109Z,1.33
2023-05-06T18:08:06.760Z,1.30
2023-05-06T18:10:35.016Z,1.85
2023-05-06T18:13:28.171Z,1.70
2023-05-06T18:15:57.982Z,2.10
2023-05-06T18:18:26.280Z,1.25
2023-05-06T18:20:54.449Z,1.40
2023-05-06T18:23:22.602Z,1.80
2023-05-06T18:25:50.770Z,1.48
2023-05-06T18:28:19.185Z,1.25
2023-05-06T18:30:47.384Z,1.08
2023-05-06T18:33:17.425Z,1.55
2023-05-06T18:35:46.066Z,1.10
2023-05-06T18:38:14.267Z,1.10
2023-05-06T18:40:43.711Z,1.10
2023-05-06T18:43:11.878Z,1.40
2023-05-06T18:45:40.008Z,1.33
2023-05-06T18:48:08.354Z,1.08
2023-05-06T18:50:38.308Z,1.40
2023-05-06T18:53:06.520Z,1.70
2023-05-06T18:55:35.085Z,1.52
2023-05-06T18:58:05.628Z,1.40
2023-05-06T19:00:33.974Z,1.23
2023-05-06T19:03:02.295Z,1.60
2023-05-06T19:05:30.644Z,1.42
2023-05-06T19:08:00.818Z,1.17
2023-05-06T19:10:29.007Z,1.58
2023-05-06T19:12:57.229Z,1.15
2023-05-06T19:15:25.457Z,1.75
2023-05-06T19:17:53.730Z,1.92
2023-05-06T19:20:21.916Z,2.63
2023-05-06T19:22:50.324Z,2.95
2023-05-06T19:25:19.970Z,2.95
2023-05-06T19:27:48.178Z,2.63
2023-05-06T19:30:16.649Z,1.90
2023-05-06T19:32:44.950Z,1.70
2023-05-06T19:35:13.376Z,2.03
2023-05-06T19:37:42.004Z,1.95
2023-05-06T19:40:11.673Z,1.75
2023-05-06T19:42:41.192Z,1.75
2023-05-06T19:45:10.786Z,1.63
2023-05-06T19:47:39.743Z,1.80
2023-05-06T19:50:09.742Z,1.85
2023-05-06T19:52:37.989Z,1.77
2023-05-06T19:55:07.669Z,1.90
2023-05-06T19:57:36.981Z,1.42
2023-05-06T20:00:10.121Z,1.60
2023-05-06T20:02:39.207Z,1.65
2023-05-06T20:05:09.002Z,1.70
2023-05-06T20:07:38.616Z,1.38
2023-05-06T20:10:10.310Z,1.10
2023-05-06T20:12:40.244Z,1.70
2023-05-06T20:15:23.636Z,1.67
2023-05-06T20:17:52.000Z,1.70
2023-05-06T20:20:20.528Z,1.80
2023-05-06T20:22:48.821Z,2.20
2023-05-06T20:25:18.765Z,1.80
2023-05-06T20:27:47.501Z,1.92
2023-05-06T20:30:16.132Z,1.83
2023-05-06T20:32:49.556Z,1.65
2023-05-06T20:35:19.732Z,2.10
2023-05-06T20:37:47.936Z,1.50
2023-05-06T20:40:16.343Z,1.70
2023-05-06T20:42:44.540Z,2.00
2023-05-06T20:45:12.921Z,1.73
2023-05-06T20:47:41.375Z,1.50
2023-05-06T20:50:16.764Z,1.77
2023-05-06T20:52:46.041Z,1.77
2023-05-06T20:55:15.214Z,1.70
2023-05-06T20:57:44.353Z,1.60
2023-05-06T21:00:14.740Z,1.55
2023-05-06T21:02:43.146Z,1.83
2023-05-06T21:05:13.119Z,1.80
2023-05-06T21:07:41.669Z,2.00
2023-05-06T21:10:11.932Z,2.00
2023-05-06T21:12:40.313Z,2.38
2023-05-06T21:15:10.311Z,2.20
2023-05-06T21:17:38.798Z,2.40
2023-05-06T21:20:10.649Z,2.20
2023-05-06T21:22:40.952Z,2.00
2023-05-06T21:25:13.098Z,2.22
2023-05-06T21:27:41.589Z,1.85
2023-05-06T21:30:11.163Z,2.10
2023-05-06T21:32:39.393Z,1.92
2023-05-06T21:35:08.801Z,2.10
2023-05-06T21:37:37.349Z,1.80
2023-05-06T21:40:13.389Z,1.67
2023-05-06T21:42:42.229Z,1.77
2023-05-06T21:45:12.346Z,1.90
2023-05-06T21:47:40.883Z,2.10
2023-05-06T21:50:10.774Z,1.98
2023-05-06T21:52:39.111Z,2.22
2023-05-06T21:55:09.082Z,2.47
2023-05-06T21:57:39.240Z,2.40
2023-05-06T22:00:12.164Z,2.08
2023-05-06T22:02:41.252Z,2.20
2023-05-06T22:05:10.097Z,2.30
2023-05-06T22:07:38.546Z,2.25
2023-05-06T22:10:13.503Z,2.38
2023-05-06T22:12:43.509Z,2.50
2023-05-06T22:15:14.596Z,2.60
2023-05-06T22:17:42.907Z,2.60
2023-05-06T22:20:12.111Z,2.90
2023-05-06T22:22:40.414Z,2.40
2023-05-06T22:25:10.240Z,2.30
2023-05-06T22:27:38.785Z,2.10
2023-05-06T22:30:10.522Z,2.30
2023-05-06T22:32:38.945Z,2.70
2023-05-06T22:35:09.338Z,2.83
2023-05-06T22:37:37.837Z,2.10
2023-05-06T22:40:08.154Z,2.00
2023-05-06T22:42:36.464Z,1.90
2023-05-06T22:45:05.399Z,2.13
2023-05-06T22:47:35.013Z,2.05
2023-05-06T22:50:03.686Z,2.17
2023-05-06T22:52:31.925Z,1.75
2023-05-06T22:55:00.165Z,1.88
2023-05-06T22:57:28.392Z,2.33
2023-05-06T22:59:56.620Z,1.80
2023-05-06T23:02:24.907Z,2.17
2023-05-06T23:04:54.495Z,1.80
2023-05-06T23:07:22.651Z,2.17
2023-05-06T23:09:50.973Z,1.95
2023-05-06T23:12:19.233Z,2.10
2023-05-06T23:14:47.447Z,1.98
2023-05-06T23:17:15.673Z,2.53
2023-05-06T23:19:44.223Z,2.10
2023-05-06T23:22:15.372Z,2.23
2023-05-06T23:24:43.689Z,2.33
2023-05-06T23:27:11.976Z,2.10
2023-05-06T23:29:40.164Z,2.28
2023-05-06T23:32:08.514Z,2.17
2023-05-06T23:34:36.774Z,1.70
2023-05-06T23:37:05.011Z,2.00
2023-05-06T23:39:34.556Z,1.70
2023-05-06T23:42:03.324Z,2.33
2023-05-06T23:44:31.536Z,1.90
2023-05-06T23:46:59.778Z,1.93
2023-05-06T23:49:27.975Z,2.17
2023-05-06T23:51:56.425Z,2.10
2023-05-06T23:54:24.668Z,2.00
2023-05-06T23:56:54.383Z,1.83
2023-05-06T23:59:22.648Z,1.80
